sensor_id;sensor_type;location;lat;lon;timestamp;P1;durP1;ratioP1;P2;durP2;ratioP2
39772;SDS011;25451;51.960;6.250;2023-04-06T00:00:07;8.40;;;3.92;;
39772;SDS011;25451;51.960;6.250;2023-04-06T00:02:34;11.43;;;4.97;;
39772;SDS011;25451;51.960;6.250;2023-04-06T00:05:00;9.85;;;5.30;;
39772;SDS011;25451;51.960;6.250;2023-04-06T00:07:25;9.53;;;4.20;;
39772;SDS011;25451;51.960;6.250;2023-04-06T00:09:51;8.73;;;4.57;;
39772;SDS011;25451;51.960;6.250;2023-04-06T00:12:16;9.05;;;4.60;;
39772;SDS011;25451;51.960;6.250;2023-04-06T00:14:41;10.97;;;5.30;;
39772;SDS011;25451;51.960;6.250;2023-04-06T00:17:07;8.73;;;4.40;;
39772;SDS011;25451;51.960;6.250;2023-04-06T00:19:32;8.60;;;4.30;;
39772;SDS011;25451;51.960;6.250;2023-04-06T00:21:58;10.33;;;5.07;;
39772;SDS011;25451;51.960;6.250;2023-04-06T00:24:23;11.40;;;4.93;;
39772;SDS011;25451;51.960;6.250;2023-04-06T00:26:48;9.95;;;4.97;;
39772;SDS011;25451;51.960;6.250;2023-04-06T00:29:14;9.57;;;4.60;;
39772;SDS011;25451;51.960;6.250;2023-04-06T00:31:40;11.90;;;5.40;;
39772;SDS011;25451;51.960;6.250;2023-04-06T00:34:05;10.52;;;4.53;;
39772;SDS011;25451;51.960;6.250;2023-04-06T00:36:31;11.48;;;4.57;;
39772;SDS011;25451;51.960;6.250;2023-04-06T00:38:56;10.97;;;4.83;;
39772;SDS011;25451;51.960;6.250;2023-04-06T00:41:22;11.67;;;5.30;;
39772;SDS011;25451;51.960;6.250;2023-04-06T00:43:47;10.37;;;5.00;;
39772;SDS011;25451;51.960;6.250;2023-04-06T00:46:12;10.00;;;4.90;;
39772;SDS011;25451;51.960;6.250;2023-04-06T00:48:38;11.83;;;5.13;;
39772;SDS011;25451;51.960;6.250;2023-04-06T00:51:04;10.40;;;5.00;;
39772;SDS011;25451;51.960;6.250;2023-04-06T00:53:29;9.60;;;5.00;;
39772;SDS011;25451;51.960;6.250;2023-04-06T00:55:55;9.97;;;4.13;;
39772;SDS011;25451;51.960;6.250;2023-04-06T00:58:20;11.77;;;5.17;;
39772;SDS011;25451;51.960;6.250;2023-04-06T01:00:45;10.27;;;5.37;;
39772;SDS011;25451;51.960;6.250;2023-04-06T01:03:11;8.53;;;4.23;;
39772;SDS011;25451;51.960;6.250;2023-04-06T01:05:36;12.73;;;5.10;;
39772;SDS011;25451;51.960;6.250;2023-04-06T01:08:05;10.23;;;5.07;;
39772;SDS011;25451;51.960;6.250;2023-04-06T01:10:31;9.70;;;4.72;;
39772;SDS011;25451;51.960;6.250;2023-04-06T01:12:56;11.47;;;4.90;;
39772;SDS011;25451;51.960;6.250;2023-04-06T01:15:21;10.85;;;5.30;;
39772;SDS011;25451;51.960;6.250;2023-04-06T01:17:48;12.75;;;5.15;;
39772;SDS011;25451;51.960;6.250;2023-04-06T01:20:13;11.97;;;5.77;;
39772;SDS011;25451;51.960;6.250;2023-04-06T01:22:39;12.88;;;5.45;;
39772;SDS011;25451;51.960;6.250;2023-04-06T01:25:04;9.10;;;4.30;;
39772;SDS011;25451;51.960;6.250;2023-04-06T01:27:30;11.05;;;4.75;;
39772;SDS011;25451;51.960;6.250;2023-04-06T01:29:55;13.00;;;5.43;;
39772;SDS011;25451;51.960;6.250;2023-04-06T01:32:21;12.00;;;5.50;;
39772;SDS011;25451;51.960;6.250;2023-04-06T01:34:46;14.53;;;5.70;;
39772;SDS011;25451;51.960;6.250;2023-04-06T01:37:12;12.70;;;5.87;;
39772;SDS011;25451;51.960;6.250;2023-04-06T01:39:37;12.37;;;5.40;;
39772;SDS011;25451;51.960;6.250;2023-04-06T01:42:02;10.65;;;5.47;;
39772;SDS011;25451;51.960;6.250;2023-04-06T01:44:28;10.87;;;5.33;;
39772;SDS011;25451;51.960;6.250;2023-04-06T01:46:55;11.17;;;5.70;;
39772;SDS011;25451;51.960;6.250;2023-04-06T01:49:21;9.32;;;4.57;;
39772;SDS011;25451;51.960;6.250;2023-04-06T01:51:46;9.55;;;4.78;;
39772;SDS011;25451;51.960;6.250;2023-04-06T01:54:12;16.17;;;5.43;;
39772;SDS011;25451;51.960;6.250;2023-04-06T01:56:37;11.70;;;5.10;;
39772;SDS011;25451;51.960;6.250;2023-04-06T01:59:02;12.37;;;5.93;;
39772;SDS011;25451;51.960;6.250;2023-04-06T02:01:28;13.43;;;5.97;;
39772;SDS011;25451;51.960;6.250;2023-04-06T02:03:53;10.83;;;5.80;;
39772;SDS011;25451;51.960;6.250;2023-04-06T02:06:18;11.10;;;5.00;;
39772;SDS011;25451;51.960;6.250;2023-04-06T02:08:44;11.85;;;5.90;;
39772;SDS011;25451;51.960;6.250;2023-04-06T02:11:09;11.38;;;5.82;;
39772;SDS011;25451;51.960;6.250;2023-04-06T02:13:35;12.00;;;6.13;;
39772;SDS011;25451;51.960;6.250;2023-04-06T02:16:00;11.27;;;5.97;;
39772;SDS011;25451;51.960;6.250;2023-04-06T02:18:27;13.52;;;6.25;;
39772;SDS011;25451;51.960;6.250;2023-04-06T02:20:53;12.57;;;6.03;;
39772;SDS011;25451;51.960;6.250;2023-04-06T02:23:18;13.55;;;6.18;;
39772;SDS011;25451;51.960;6.250;2023-04-06T02:25:44;15.73;;;6.40;;
39772;SDS011;25451;51.960;6.250;2023-04-06T02:28:09;14.37;;;6.23;;
39772;SDS011;25451;51.960;6.250;2023-04-06T02:30:35;14.95;;;6.05;;
39772;SDS011;25451;51.960;6.250;2023-04-06T02:33:00;13.30;;;6.17;;
39772;SDS011;25451;51.960;6.250;2023-04-06T02:35:27;10.93;;;5.57;;
39772;SDS011;25451;51.960;6.250;2023-04-06T02:37:53;11.32;;;5.63;;
39772;SDS011;25451;51.960;6.250;2023-04-06T02:40:18;13.27;;;5.90;;
39772;SDS011;25451;51.960;6.250;2023-04-06T02:42:43;13.73;;;5.87;;
39772;SDS011;25451;51.960;6.250;2023-04-06T02:45:09;10.97;;;5.10;;
39772;SDS011;25451;51.960;6.250;2023-04-06T02:47:34;10.88;;;5.38;;
39772;SDS011;25451;51.960;6.250;2023-04-06T02:50:00;12.80;;;5.93;;
39772;SDS011;25451;51.960;6.250;2023-04-06T02:52:25;10.43;;;5.33;;
39772;SDS011;25451;51.960;6.250;2023-04-06T02:54:51;10.33;;;5.43;;
39772;SDS011;25451;51.960;6.250;2023-04-06T02:57:16;12.03;;;6.00;;
39772;SDS011;25451;51.960;6.250;2023-04-06T02:59:42;11.10;;;5.75;;
39772;SDS011;25451;51.960;6.250;2023-04-06T03:02:07;13.97;;;5.93;;
39772;SDS011;25451;51.960;6.250;2023-04-06T03:04:32;10.47;;;5.57;;
39772;SDS011;25451;51.960;6.250;2023-04-06T03:06:58;11.30;;;6.07;;
39772;SDS011;25451;51.960;6.250;2023-04-06T03:09:23;10.60;;;5.67;;
39772;SDS011;25451;51.960;6.250;2023-04-06T03:11:48;11.73;;;5.53;;
39772;SDS011;25451;51.960;6.250;2023-04-06T03:14:13;13.60;;;5.90;;
39772;SDS011;25451;51.960;6.250;2023-04-06T03:16:39;10.77;;;5.50;;
39772;SDS011;25451;51.960;6.250;2023-04-06T03:19:04;11.23;;;5.40;;
39772;SDS011;25451;51.960;6.250;2023-04-06T03:21:30;12.57;;;6.07;;
39772;SDS011;25451;51.960;6.250;2023-04-06T03:23:55;12.50;;;5.87;;
39772;SDS011;25451;51.960;6.250;2023-04-06T03:26:20;11.27;;;5.27;;
39772;SDS011;25451;51.960;6.250;2023-04-06T03:28:47;12.80;;;5.70;;
39772;SDS011;25451;51.960;6.250;2023-04-06T03:31:12;13.30;;;5.87;;
39772;SDS011;25451;51.960;6.250;2023-04-06T03:33:37;12.53;;;5.47;;
39772;SDS011;25451;51.960;6.250;2023-04-06T03:36:03;10.77;;;5.03;;
39772;SDS011;25451;51.960;6.250;2023-04-06T03:38:28;13.65;;;5.43;;
39772;SDS011;25451;51.960;6.250;2023-04-06T03:40:54;13.05;;;5.70;;
39772;SDS011;25451;51.960;6.250;2023-04-06T03:43:19;13.00;;;5.73;;
39772;SDS011;25451;51.960;6.250;2023-04-06T03:45:45;11.13;;;5.47;;
39772;SDS011;25451;51.960;6.250;2023-04-06T03:48:10;10.90;;;5.70;;
39772;SDS011;25451;51.960;6.250;2023-04-06T03:50:35;11.80;;;5.20;;
39772;SDS011;25451;51.960;6.250;2023-04-06T03:53:01;11.07;;;5.50;;
39772;SDS011;25451;51.960;6.250;2023-04-06T03:55:29;11.82;;;5.75;;
39772;SDS011;25451;51.960;6.250;2023-04-06T03:57:54;11.55;;;5.50;;
39772;SDS011;25451;51.960;6.250;2023-04-06T04:00:20;12.03;;;5.70;;
39772;SDS011;25451;51.960;6.250;2023-04-06T04:02:45;10.63;;;5.07;;
39772;SDS011;25451;51.960;6.250;2023-04-06T04:05:10;12.73;;;6.00;;
39772;SDS011;25451;51.960;6.250;2023-04-06T04:07:35;11.13;;;5.10;;
39772;SDS011;25451;51.960;6.250;2023-04-06T04:10:01;13.67;;;5.60;;
39772;SDS011;25451;51.960;6.250;2023-04-06T04:12:26;10.20;;;5.27;;
39772;SDS011;25451;51.960;6.250;2023-04-06T04:14:51;14.13;;;6.10;;
39772;SDS011;25451;51.960;6.250;2023-04-06T04:17:16;14.37;;;5.73;;
39772;SDS011;25451;51.960;6.250;2023-04-06T04:19:42;12.07;;;5.47;;
39772;SDS011;25451;51.960;6.250;2023-04-06T04:22:07;11.43;;;5.67;;
39772;SDS011;25451;51.960;6.250;2023-04-06T04:24:32;9.50;;;5.20;;
39772;SDS011;25451;51.960;6.250;2023-04-06T04:26:58;11.30;;;5.27;;
39772;SDS011;25451;51.960;6.250;2023-04-06T04:29:25;10.32;;;5.18;;
39772;SDS011;25451;51.960;6.250;2023-04-06T04:31:51;10.73;;;5.07;;
39772;SDS011;25451;51.960;6.250;2023-04-06T04:34:17;11.95;;;5.60;;
39772;SDS011;25451;51.960;6.250;2023-04-06T04:36:45;10.02;;;5.07;;
39772;SDS011;25451;51.960;6.250;2023-04-06T04:39:10;10.83;;;5.37;;
39772;SDS011;25451;51.960;6.250;2023-04-06T04:41:36;14.80;;;5.50;;
39772;SDS011;25451;51.960;6.250;2023-04-06T04:44:01;11.23;;;5.23;;
39772;SDS011;25451;51.960;6.250;2023-04-06T04:46:27;12.57;;;5.80;;
39772;SDS011;25451;51.960;6.250;2023-04-06T04:48:52;12.07;;;5.68;;
39772;SDS011;25451;51.960;6.250;2023-04-06T04:51:17;10.90;;;5.77;;
39772;SDS011;25451;51.960;6.250;2023-04-06T04:53:43;11.63;;;5.57;;
39772;SDS011;25451;51.960;6.250;2023-04-06T04:56:08;12.13;;;5.13;;
39772;SDS011;25451;51.960;6.250;2023-04-06T04:58:33;14.13;;;6.00;;
39772;SDS011;25451;51.960;6.250;2023-04-06T05:00:58;10.97;;;5.37;;
39772;SDS011;25451;51.960;6.250;2023-04-06T05:03:26;10.97;;;4.83;;
39772;SDS011;25451;51.960;6.250;2023-04-06T05:05:52;9.98;;;5.38;;
39772;SDS011;25451;51.960;6.250;2023-04-06T05:08:17;12.87;;;5.47;;
39772;SDS011;25451;51.960;6.250;2023-04-06T05:10:43;13.13;;;5.90;;
39772;SDS011;25451;51.960;6.250;2023-04-06T05:13:09;11.40;;;5.35;;
39772;SDS011;25451;51.960;6.250;2023-04-06T05:15:35;11.60;;;5.43;;
39772;SDS011;25451;51.960;6.250;2023-04-06T05:18:03;11.15;;;5.47;;
39772;SDS011;25451;51.960;6.250;2023-04-06T05:20:29;12.90;;;5.85;;
39772;SDS011;25451;51.960;6.250;2023-04-06T05:22:54;11.40;;;5.70;;
39772;SDS011;25451;51.960;6.250;2023-04-06T05:25:19;12.30;;;5.33;;
39772;SDS011;25451;51.960;6.250;2023-04-06T05:27:45;14.43;;;6.00;;
39772;SDS011;25451;51.960;6.250;2023-04-06T05:30:10;13.40;;;6.27;;
39772;SDS011;25451;51.960;6.250;2023-04-06T05:32:36;14.75;;;5.68;;
39772;SDS011;25451;51.960;6.250;2023-04-06T05:35:01;11.27;;;5.27;;
39772;SDS011;25451;51.960;6.250;2023-04-06T05:37:27;12.67;;;5.30;;
39772;SDS011;25451;51.960;6.250;2023-04-06T05:39:52;11.20;;;5.60;;
39772;SDS011;25451;51.960;6.250;2023-04-06T05:42:17;11.17;;;5.60;;
39772;SDS011;25451;51.960;6.250;2023-04-06T05:44:43;12.30;;;6.37;;
39772;SDS011;25451;51.960;6.250;2023-04-06T05:47:08;13.50;;;5.25;;
39772;SDS011;25451;51.960;6.250;2023-04-06T05:49:33;12.10;;;5.80;;
39772;SDS011;25451;51.960;6.250;2023-04-06T05:51:59;12.00;;;6.23;;
39772;SDS011;25451;51.960;6.250;2023-04-06T05:54:25;12.23;;;5.80;;
39772;SDS011;25451;51.960;6.250;2023-04-06T05:56:50;10.07;;;5.37;;
39772;SDS011;25451;51.960;6.250;2023-04-06T05:59:15;12.43;;;5.87;;
39772;SDS011;25451;51.960;6.250;2023-04-06T06:01:41;11.27;;;5.53;;
39772;SDS011;25451;51.960;6.250;2023-04-06T06:04:06;10.97;;;5.60;;
39772;SDS011;25451;51.960;6.250;2023-04-06T06:06:31;14.57;;;6.20;;
39772;SDS011;25451;51.960;6.250;2023-04-06T06:08:57;10.90;;;5.47;;
39772;SDS011;25451;51.960;6.250;2023-04-06T06:11:26;12.43;;;6.07;;
39772;SDS011;25451;51.960;6.250;2023-04-06T06:13:52;14.45;;;6.30;;
39772;SDS011;25451;51.960;6.250;2023-04-06T06:16:18;12.80;;;5.77;;
39772;SDS011;25451;51.960;6.250;2023-04-06T06:18:44;13.35;;;5.53;;
39772;SDS011;25451;51.960;6.250;2023-04-06T06:21:09;14.13;;;5.87;;
39772;SDS011;25451;51.960;6.250;2023-04-06T06:23:37;15.15;;;6.70;;
39772;SDS011;25451;51.960;6.250;2023-04-06T06:26:02;14.23;;;6.57;;
39772;SDS011;25451;51.960;6.250;2023-04-06T06:28:28;13.60;;;6.33;;
39772;SDS011;25451;51.960;6.250;2023-04-06T06:30:53;14.32;;;6.15;;
39772;SDS011;25451;51.960;6.250;2023-04-06T06:33:18;12.60;;;6.37;;
39772;SDS011;25451;51.960;6.250;2023-04-06T06:35:44;15.20;;;5.90;;
39772;SDS011;25451;51.960;6.250;2023-04-06T06:38:09;13.27;;;6.73;;
39772;SDS011;25451;51.960;6.250;2023-04-06T06:40:34;12.60;;;6.17;;
39772;SDS011;25451;51.960;6.250;2023-04-06T06:43:00;15.13;;;6.43;;
39772;SDS011;25451;51.960;6.250;2023-04-06T06:45:25;13.80;;;6.40;;
39772;SDS011;25451;51.960;6.250;2023-04-06T06:47:51;13.23;;;6.43;;
39772;SDS011;25451;51.960;6.250;2023-04-06T06:50:16;18.90;;;5.90;;
39772;SDS011;25451;51.960;6.250;2023-04-06T06:52:41;16.93;;;6.83;;
39772;SDS011;25451;51.960;6.250;2023-04-06T06:55:08;15.90;;;6.73;;
39772;SDS011;25451;51.960;6.250;2023-04-06T06:57:34;18.17;;;7.13;;
39772;SDS011;25451;51.960;6.250;2023-04-06T07:00:00;14.13;;;7.10;;
39772;SDS011;25451;51.960;6.250;2023-04-06T07:02:25;15.27;;;7.20;;
39772;SDS011;25451;51.960;6.250;2023-04-06T07:04:50;16.37;;;6.93;;
39772;SDS011;25451;51.960;6.250;2023-04-06T07:07:16;19.43;;;7.37;;
39772;SDS011;25451;51.960;6.250;2023-04-06T07:09:41;15.17;;;7.57;;
39772;SDS011;25451;51.960;6.250;2023-04-06T07:12:06;12.77;;;6.27;;
39772;SDS011;25451;51.960;6.250;2023-04-06T07:14:32;16.10;;;6.87;;
39772;SDS011;25451;51.960;6.250;2023-04-06T07:16:57;15.90;;;7.07;;
39772;SDS011;25451;51.960;6.250;2023-04-06T07:19:22;19.97;;;7.70;;
39772;SDS011;25451;51.960;6.250;2023-04-06T07:21:48;16.30;;;7.57;;
39772;SDS011;25451;51.960;6.250;2023-04-06T07:24:14;16.30;;;7.30;;
39772;SDS011;25451;51.960;6.250;2023-04-06T07:26:40;18.92;;;8.35;;
39772;SDS011;25451;51.960;6.250;2023-04-06T07:29:05;17.33;;;8.30;;
39772;SDS011;25451;51.960;6.250;2023-04-06T07:31:31;15.97;;;7.43;;
39772;SDS011;25451;51.960;6.250;2023-04-06T07:33:56;15.35;;;7.63;;
39772;SDS011;25451;51.960;6.250;2023-04-06T07:36:21;16.02;;;7.70;;
39772;SDS011;25451;51.960;6.250;2023-04-06T07:38:47;17.83;;;8.40;;
39772;SDS011;25451;51.960;6.250;2023-04-06T07:41:13;19.43;;;7.87;;
39772;SDS011;25451;51.960;6.250;2023-04-06T07:43:39;18.80;;;8.38;;
39772;SDS011;25451;51.960;6.250;2023-04-06T07:46:04;16.33;;;7.63;;
39772;SDS011;25451;51.960;6.250;2023-04-06T07:48:29;15.47;;;7.53;;
39772;SDS011;25451;51.960;6.250;2023-04-06T07:51:01;19.07;;;8.07;;
39772;SDS011;25451;51.960;6.250;2023-04-06T07:53:27;17.63;;;8.32;;
39772;SDS011;25451;51.960;6.250;2023-04-06T07:55:53;17.07;;;8.30;;
39772;SDS011;25451;51.960;6.250;2023-04-06T07:58:18;17.83;;;8.53;;
39772;SDS011;25451;51.960;6.250;2023-04-06T08:00:44;19.40;;;8.40;;
39772;SDS011;25451;51.960;6.250;2023-04-06T08:03:09;16.80;;;7.85;;
39772;SDS011;25451;51.960;6.250;2023-04-06T08:05:34;24.30;;;8.27;;
39772;SDS011;25451;51.960;6.250;2023-04-06T08:08:00;18.20;;;8.17;;
39772;SDS011;25451;51.960;6.250;2023-04-06T08:10:25;16.00;;;7.97;;
39772;SDS011;25451;51.960;6.250;2023-04-06T08:12:51;18.17;;;8.23;;
39772;SDS011;25451;51.960;6.250;2023-04-06T08:15:17;15.07;;;7.60;;
39772;SDS011;25451;51.960;6.250;2023-04-06T08:17:43;18.90;;;8.13;;
39772;SDS011;25451;51.960;6.250;2023-04-06T08:20:08;16.05;;;7.68;;
39772;SDS011;25451;51.960;6.250;2023-04-06T08:22:34;18.57;;;7.83;;
39772;SDS011;25451;51.960;6.250;2023-04-06T08:24:59;19.03;;;8.10;;
39772;SDS011;25451;51.960;6.250;2023-04-06T08:27:25;18.47;;;8.37;;
39772;SDS011;25451;51.960;6.250;2023-04-06T08:29:50;18.48;;;7.05;;
39772;SDS011;25451;51.960;6.250;2023-04-06T08:32:16;18.90;;;8.33;;
39772;SDS011;25451;51.960;6.250;2023-04-06T08:34:41;17.13;;;7.80;;
39772;SDS011;25451;51.960;6.250;2023-04-06T08:37:07;16.20;;;7.63;;
39772;SDS011;25451;51.960;6.250;2023-04-06T08:39:32;16.43;;;8.17;;
39772;SDS011;25451;51.960;6.250;2023-04-06T08:41:58;16.15;;;8.00;;
39772;SDS011;25451;51.960;6.250;2023-04-06T08:44:25;17.87;;;7.70;;
39772;SDS011;25451;51.960;6.250;2023-04-06T08:46:51;17.35;;;7.97;;
39772;SDS011;25451;51.960;6.250;2023-04-06T08:49:17;19.67;;;8.07;;
39772;SDS011;25451;51.960;6.250;2023-04-06T08:51:43;14.40;;;7.50;;
39772;SDS011;25451;51.960;6.250;2023-04-06T08:54:09;16.13;;;8.10;;
39772;SDS011;25451;51.960;6.250;2023-04-06T08:56:36;17.83;;;7.93;;
39772;SDS011;25451;51.960;6.250;2023-04-06T08:59:03;17.00;;;8.07;;
39772;SDS011;25451;51.960;6.250;2023-04-06T09:01:30;19.38;;;8.15;;
39772;SDS011;25451;51.960;6.250;2023-04-06T09:03:57;14.82;;;7.63;;
39772;SDS011;25451;51.960;6.250;2023-04-06T09:06:24;17.17;;;7.68;;
39772;SDS011;25451;51.960;6.250;2023-04-06T09:08:50;17.15;;;8.27;;
39772;SDS011;25451;51.960;6.250;2023-04-06T09:11:15;17.80;;;8.00;;
39772;SDS011;25451;51.960;6.250;2023-04-06T09:13:44;15.60;;;8.07;;
39772;SDS011;25451;51.960;6.250;2023-04-06T09:16:10;18.33;;;8.40;;
39772;SDS011;25451;51.960;6.250;2023-04-06T09:18:36;17.80;;;8.33;;
39772;SDS011;25451;51.960;6.250;2023-04-06T09:21:02;19.83;;;8.52;;
39772;SDS011;25451;51.960;6.250;2023-04-06T09:23:29;16.20;;;8.02;;
39772;SDS011;25451;51.960;6.250;2023-04-06T09:26:10;17.07;;;8.30;;
39772;SDS011;25451;51.960;6.250;2023-04-06T09:28:41;16.88;;;7.82;;
39772;SDS011;25451;51.960;6.250;2023-04-06T09:31:10;20.08;;;8.80;;
39772;SDS011;25451;51.960;6.250;2023-04-06T09:33:37;16.42;;;8.00;;
39772;SDS011;25451;51.960;6.250;2023-04-06T09:36:03;17.13;;;8.30;;
39772;SDS011;25451;51.960;6.250;2023-04-06T09:38:29;18.00;;;8.47;;
39772;SDS011;25451;51.960;6.250;2023-04-06T09:40:54;16.77;;;8.00;;
39772;SDS011;25451;51.960;6.250;2023-04-06T09:43:26;18.47;;;7.83;;
39772;SDS011;25451;51.960;6.250;2023-04-06T09:45:51;19.40;;;8.02;;
39772;SDS011;25451;51.960;6.250;2023-04-06T09:48:18;16.83;;;8.00;;
39772;SDS011;25451;51.960;6.250;2023-04-06T09:50:45;17.40;;;7.97;;
39772;SDS011;25451;51.960;6.250;2023-04-06T09:53:11;15.60;;;8.00;;
39772;SDS011;25451;51.960;6.250;2023-04-06T09:55:41;17.55;;;8.20;;
39772;SDS011;25451;51.960;6.250;2023-04-06T09:58:16;18.48;;;7.90;;
39772;SDS011;25451;51.960;6.250;2023-04-06T10:00:51;16.42;;;7.95;;
39772;SDS011;25451;51.960;6.250;2023-04-06T10:03:43;17.48;;;7.65;;
39772;SDS011;25451;51.960;6.250;2023-04-06T10:06:14;17.60;;;8.15;;
39772;SDS011;25451;51.960;6.250;2023-04-06T10:08:42;16.52;;;8.15;;
39772;SDS011;25451;51.960;6.250;2023-04-06T10:11:10;16.15;;;7.80;;
39772;SDS011;25451;51.960;6.250;2023-04-06T10:13:36;15.13;;;8.00;;
39772;SDS011;25451;51.960;6.250;2023-04-06T10:16:01;17.10;;;8.10;;
39772;SDS011;25451;51.960;6.250;2023-04-06T10:18:27;20.23;;;8.32;;
39772;SDS011;25451;51.960;6.250;2023-04-06T10:20:54;16.88;;;8.00;;
39772;SDS011;25451;51.960;6.250;2023-04-06T10:23:37;17.60;;;7.75;;
39772;SDS011;25451;51.960;6.250;2023-04-06T10:26:12;15.85;;;7.70;;
39772;SDS011;25451;51.960;6.250;2023-04-06T10:28:41;19.63;;;8.38;;
39772;SDS011;25451;51.960;6.250;2023-04-06T10:31:07;15.23;;;7.78;;
39772;SDS011;25451;51.960;6.250;2023-04-06T10:33:32;17.90;;;8.73;;
39772;SDS011;25451;51.960;6.250;2023-04-06T10:35:58;20.90;;;8.73;;
39772;SDS011;25451;51.960;6.250;2023-04-06T10:38:46;17.75;;;8.27;;
39772;SDS011;25451;51.960;6.250;2023-04-06T10:41:11;18.70;;;8.50;;
39772;SDS011;25451;51.960;6.250;2023-04-06T10:43:38;16.73;;;8.30;;
39772;SDS011;25451;51.960;6.250;2023-04-06T10:46:07;19.55;;;8.57;;
39772;SDS011;25451;51.960;6.250;2023-04-06T10:48:45;16.90;;;8.23;;
39772;SDS011;25451;51.960;6.250;2023-04-06T10:51:15;18.55;;;8.20;;
39772;SDS011;25451;51.960;6.250;2023-04-06T10:53:42;16.52;;;7.90;;
39772;SDS011;25451;51.960;6.250;2023-04-06T10:56:09;15.93;;;7.90;;
39772;SDS011;25451;51.960;6.250;2023-04-06T10:58:36;16.38;;;7.47;;
39772;SDS011;25451;51.960;6.250;2023-04-06T11:01:02;17.73;;;8.43;;
39772;SDS011;25451;51.960;6.250;2023-04-06T11:03:28;18.58;;;8.25;;
39772;SDS011;25451;51.960;6.250;2023-04-06T11:05:53;19.90;;;8.68;;
39772;SDS011;25451;51.960;6.250;2023-04-06T11:08:25;21.17;;;8.30;;
39772;SDS011;25451;51.960;6.250;2023-04-06T11:11:03;16.10;;;7.88;;
39772;SDS011;25451;51.960;6.250;2023-04-06T11:13:54;21.17;;;7.45;;
39772;SDS011;25451;51.960;6.250;2023-04-06T11:16:21;18.33;;;7.65;;
39772;SDS011;25451;51.960;6.250;2023-04-06T11:18:49;14.97;;;6.97;;
39772;SDS011;25451;51.960;6.250;2023-04-06T11:21:16;17.50;;;7.13;;
39772;SDS011;25451;51.960;6.250;2023-04-06T11:23:41;16.17;;;7.20;;
39772;SDS011;25451;51.960;6.250;2023-04-06T11:26:10;15.63;;;7.23;;
39772;SDS011;25451;51.960;6.250;2023-04-06T11:28:40;14.87;;;7.03;;
39772;SDS011;25451;51.960;6.250;2023-04-06T11:31:07;15.50;;;6.50;;
39772;SDS011;25451;51.960;6.250;2023-04-06T11:33:37;15.90;;;6.93;;
39772;SDS011;25451;51.960;6.250;2023-04-06T11:36:04;17.23;;;7.10;;
39772;SDS011;25451;51.960;6.250;2023-04-06T11:38:30;16.65;;;6.97;;
39772;SDS011;25451;51.960;6.250;2023-04-06T11:40:56;16.43;;;6.67;;
39772;SDS011;25451;51.960;6.250;2023-04-06T11:43:28;16.23;;;7.17;;
39772;SDS011;25451;51.960;6.250;2023-04-06T11:46:01;15.07;;;6.70;;
39772;SDS011;25451;51.960;6.250;2023-04-06T11:48:27;14.13;;;6.50;;
39772;SDS011;25451;51.960;6.250;2023-04-06T11:50:57;12.70;;;6.18;;
39772;SDS011;25451;51.960;6.250;2023-04-06T11:53:23;13.52;;;6.10;;
39772;SDS011;25451;51.960;6.250;2023-04-06T11:55:49;13.93;;;6.63;;
39772;SDS011;25451;51.960;6.250;2023-04-06T11:58:14;14.00;;;6.97;;
39772;SDS011;25451;51.960;6.250;2023-04-06T12:00:40;14.23;;;6.80;;
39772;SDS011;25451;51.960;6.250;2023-04-06T12:03:09;14.00;;;6.68;;
39772;SDS011;25451;51.960;6.250;2023-04-06T12:05:35;14.13;;;6.97;;
39772;SDS011;25451;51.960;6.250;2023-04-06T12:08:00;16.43;;;7.10;;
39772;SDS011;25451;51.960;6.250;2023-04-06T12:10:26;13.40;;;6.67;;
39772;SDS011;25451;51.960;6.250;2023-04-06T12:12:51;12.77;;;6.53;;
39772;SDS011;25451;51.960;6.250;2023-04-06T12:15:16;13.83;;;7.37;;
39772;SDS011;25451;51.960;6.250;2023-04-06T12:17:42;12.43;;;6.37;;
39772;SDS011;25451;51.960;6.250;2023-04-06T12:20:07;16.93;;;6.87;;
39772;SDS011;25451;51.960;6.250;2023-04-06T12:22:33;13.77;;;7.53;;
39772;SDS011;25451;51.960;6.250;2023-04-06T12:24:58;14.43;;;7.17;;
39772;SDS011;25451;51.960;6.250;2023-04-06T12:27:24;17.33;;;7.07;;
39772;SDS011;25451;51.960;6.250;2023-04-06T12:29:49;14.10;;;7.33;;
39772;SDS011;25451;51.960;6.250;2023-04-06T12:32:15;13.18;;;6.75;;
39772;SDS011;25451;51.960;6.250;2023-04-06T12:34:42;14.57;;;7.10;;
39772;SDS011;25451;51.960;6.250;2023-04-06T12:37:07;13.85;;;7.00;;
39772;SDS011;25451;51.960;6.250;2023-04-06T12:39:32;14.70;;;7.20;;
39772;SDS011;25451;51.960;6.250;2023-04-06T12:41:58;13.53;;;6.23;;
39772;SDS011;25451;51.960;6.250;2023-04-06T12:44:23;13.93;;;6.83;;
39772;SDS011;25451;51.960;6.250;2023-04-06T12:46:48;14.67;;;6.77;;
39772;SDS011;25451;51.960;6.250;2023-04-06T12:49:15;13.70;;;6.30;;
39772;SDS011;25451;51.960;6.250;2023-04-06T12:51:42;13.48;;;6.30;;
39772;SDS011;25451;51.960;6.250;2023-04-06T12:54:07;14.63;;;6.40;;
39772;SDS011;25451;51.960;6.250;2023-04-06T12:56:32;14.00;;;6.57;;
39772;SDS011;25451;51.960;6.250;2023-04-06T12:58:58;10.93;;;5.80;;
39772;SDS011;25451;51.960;6.250;2023-04-06T13:01:23;12.00;;;6.13;;
39772;SDS011;25451;51.960;6.250;2023-04-06T13:03:49;9.57;;;5.40;;
39772;SDS011;25451;51.960;6.250;2023-04-06T13:06:15;9.40;;;4.97;;
39772;SDS011;25451;51.960;6.250;2023-04-06T13:08:40;10.20;;;5.32;;
39772;SDS011;25451;51.960;6.250;2023-04-06T13:11:06;9.70;;;5.10;;
39772;SDS011;25451;51.960;6.250;2023-04-06T13:13:34;9.38;;;4.97;;
39772;SDS011;25451;51.960;6.250;2023-04-06T13:16:01;11.80;;;5.00;;
39772;SDS011;25451;51.960;6.250;2023-04-06T13:18:28;11.18;;;4.97;;
39772;SDS011;25451;51.960;6.250;2023-04-06T13:20:55;9.30;;;4.93;;
39772;SDS011;25451;51.960;6.250;2023-04-06T13:23:21;9.25;;;5.10;;
39772;SDS011;25451;51.960;6.250;2023-04-06T13:25:47;11.30;;;4.80;;
39772;SDS011;25451;51.960;6.250;2023-04-06T13:28:13;7.97;;;4.47;;
39772;SDS011;25451;51.960;6.250;2023-04-06T13:30:38;9.97;;;4.90;;
39772;SDS011;25451;51.960;6.250;2023-04-06T13:33:04;8.73;;;4.70;;
39772;SDS011;25451;51.960;6.250;2023-04-06T13:35:29;9.65;;;4.97;;
39772;SDS011;25451;51.960;6.250;2023-04-06T13:37:55;9.83;;;4.70;;
39772;SDS011;25451;51.960;6.250;2023-04-06T13:40:20;10.67;;;4.80;;
39772;SDS011;25451;51.960;6.250;2023-04-06T13:42:46;8.57;;;4.53;;
39772;SDS011;25451;51.960;6.250;2023-04-06T13:45:12;9.55;;;4.57;;
39772;SDS011;25451;51.960;6.250;2023-04-06T13:47:37;10.70;;;4.43;;
39772;SDS011;25451;51.960;6.250;2023-04-06T13:50:03;9.77;;;4.35;;
39772;SDS011;25451;51.960;6.250;2023-04-06T13:52:29;8.02;;;4.15;;
39772;SDS011;25451;51.960;6.250;2023-04-06T13:54:54;8.27;;;4.40;;
39772;SDS011;25451;51.960;6.250;2023-04-06T13:57:20;8.95;;;4.60;;
39772;SDS011;25451;51.960;6.250;2023-04-06T13:59:45;8.67;;;4.47;;
39772;SDS011;25451;51.960;6.250;2023-04-06T14:02:11;8.67;;;4.70;;
39772;SDS011;25451;51.960;6.250;2023-04-06T14:04:36;9.77;;;4.20;;
39772;SDS011;25451;51.960;6.250;2023-04-06T14:07:02;8.25;;;4.22;;
39772;SDS011;25451;51.960;6.250;2023-04-06T14:09:28;7.97;;;4.37;;
39772;SDS011;25451;51.960;6.250;2023-04-06T14:11:55;9.63;;;4.15;;
39772;SDS011;25451;51.960;6.250;2023-04-06T14:14:21;8.88;;;4.47;;
39772;SDS011;25451;51.960;6.250;2023-04-06T14:16:47;7.57;;;4.03;;
39772;SDS011;25451;51.960;6.250;2023-04-06T14:19:13;9.43;;;4.10;;
39772;SDS011;25451;51.960;6.250;2023-04-06T14:21:40;9.18;;;4.20;;
39772;SDS011;25451;51.960;6.250;2023-04-06T14:24:07;7.65;;;3.72;;
39772;SDS011;25451;51.960;6.250;2023-04-06T14:26:33;9.03;;;4.07;;
39772;SDS011;25451;51.960;6.250;2023-04-06T14:28:59;8.70;;;4.07;;